Time;durP1;ratioP1;P1;durP2;ratioP2;P2;SDS_P1;SDS_P2;PMS_P1;PMS_P2;Temp;Humidity;BMP_temperature;BMP_pressure;BME280_temperature;BME280_humidity;BME280_pressure;Samples;Min_cycle;Max_cycle;Signal;HPM_P1;HPM_P2
2022/09/04 00:02:33;;;;;;;7.70;3.70;;;;;;;;;;1728289;83;21019;-68
2022/09/04 00:05:18;;;;;;;12.03;4.83;;;;;;;;;;1727963;83;21036;-68
2022/09/04 00:08:20;;;;;;;11.45;5.65;;;;;;;;;;1728647;83;21011;-68
2022/09/04 00:10:56;;;;;;;14.63;7.22;;;;;;;;;;1728304;83;21083;-67
2022/09/04 00:13:30;;;;;;;17.37;9.65;;;;;;;;;;1724318;83;21567;-67
2022/09/04 00:16:05;;;;;;;20.90;10.23;;;;;;;;;;1723341;83;21067;-66
2022/09/04 00:19:02;;;;;;;28.92;11.90;;;;;;;;;;1728662;83;21070;-67
2022/09/04 00:21:42;;;;;;;28.70;13.78;;;;;;;;;;1728214;83;21044;-66
2022/09/04 00:24:14;;;;;;;39.03;16.87;;;;;;;;;;1728783;83;21028;-67
2022/09/04 00:26:44;;;;;;;36.15;17.07;;;;;;;;;;1728543;83;21015;-68
2022/09/04 00:29:42;;;;;;;36.20;17.15;;;;;;;;;;1704738;81;21069;-68
2022/09/04 00:32:25;;;;;;;40.67;18.48;;;;;;;;;;1706600;82;21068;-68
2022/09/04 00:35:04;;;;;;;36.10;18.02;;;;;;;;;;1727599;81;21031;-68
2022/09/04 00:37:37;;;;;;;33.92;16.35;;;;;;;;;;1728739;83;21046;-68
2022/09/04 00:40:38;;;;;;;28.70;14.55;;;;;;;;;;1728274;83;21084;-67
2022/09/04 00:43:08;;;;;;;24.37;11.40;;;;;;;;;;1728320;83;21071;-68
2022/09/04 00:46:12;;;;;;;26.73;11.45;;;;;;;;;;1727956;83;21059;-69
2022/09/04 00:49:17;;;;;;;22.30;10.23;;;;;;;;;;1729213;82;21487;-68
2022/09/04 00:51:53;;;;;;;20.47;9.33;;;;;;;;;;1728540;83;21059;-69
2022/09/04 00:54:58;;;;;;;19.67;9.40;;;;;;;;;;1729610;83;21472;-67
2022/09/04 00:57:50;;;;;;;16.27;8.80;;;;;;;;;;1728318;83;21020;-67
2022/09/04 01:00:19;;;;;;;12.47;7.62;;;;;;;;;;1728199;83;21020;-69
2022/09/04 01:02:49;;;;;;;12.10;7.20;;;;;;;;;;1728325;83;21099;-67
2022/09/04 01:05:38;;;;;;;12.33;7.22;;;;;;;;;;1727892;83;21063;-69
2022/09/04 01:08:24;;;;;;;10.32;6.20;;;;;;;;;;1728690;83;21465;-67
2022/09/04 01:11:11;;;;;;;7.28;5.28;;;;;;;;;;1728277;82;21031;-67
2022/09/04 01:13:44;;;;;;;8.35;4.90;;;;;;;;;;1728367;83;21079;-68
2022/09/04 01:16:28;;;;;;;;;;;;;;;;;;1731128;83;21516;-68
2022/09/04 01:19:16;;;;;;;7.95;3.98;;;;;;;;;;1728504;83;20116;-68
2022/09/04 01:21:52;;;;;;;4.87;3.50;;;;;;;;;;1728450;83;21027;-68
2022/09/04 01:24:54;;;;;;;8.45;4.00;;;;;;;;;;1728487;82;21039;-68
2022/09/04 01:27:57;;;;;;;9.05;3.95;;;;;;;;;;1728920;82;21092;-67
2022/09/04 01:30:24;;;;;;;8.70;4.90;;;;;;;;;;1728309;83;21548;-67
2022/09/04 01:33:15;;;;;;;7.85;5.22;;;;;;;;;;1728260;83;21095;-67
2022/09/04 01:36:06;;;;;;;13.10;6.45;;;;;;;;;;1733526;82;21055;-67
2022/09/04 01:38:46;;;;;;;14.73;7.30;;;;;;;;;;1652837;82;21074;-67
2022/09/04 01:41:15;;;;;;;20.05;9.65;;;;;;;;;;1718786;83;21066;-67
2022/09/04 01:43:42;;;;;;;18.25;10.40;;;;;;;;;;1728315;83;21578;-67
2022/09/04 01:46:21;;;;;;;23.22;11.75;;;;;;;;;;1728502;83;21086;-67
2022/09/04 01:49:22;;;;;;;24.43;11.57;;;;;;;;;;1728391;82;21032;-67
2022/09/04 01:52:10;;;;;;;29.40;15.38;;;;;;;;;;1723878;81;21078;-67
2022/09/04 01:54:41;;;;;;;27.93;14.30;;;;;;;;;;1727173;83;21058;-67
2022/09/04 01:57:20;;;;;;;28.38;14.95;;;;;;;;;;1732947;81;21074;-67
2022/09/04 01:59:56;;;;;;;25.32;14.15;;;;;;;;;;1727098;83;21043;-67
2022/09/04 02:02:33;;;;;;;26.17;13.83;;;;;;;;;;1716764;83;21044;-66
2022/09/04 02:05:18;;;;;;;21.97;13.05;;;;;;;;;;1727452;83;21543;-67
2022/09/04 02:08:01;;;;;;;19.87;10.60;;;;;;;;;;1727516;83;21550;-66
2022/09/04 02:10:31;;;;;;;16.30;9.28;;;;;;;;;;1673758;83;21091;-66
2022/09/04 02:13:13;;;;;;;14.63;8.13;;;;;;;;;;1705162;83;21104;-66
2022/09/04 02:15:53;;;;;;;13.08;6.53;;;;;;;;;;1707553;83;21036;-66
2022/09/04 02:18:35;;;;;;;9.28;5.37;;;;;;;;;;1725711;83;21027;-66
2022/09/04 02:21:22;;;;;;;13.30;5.87;;;;;;;;;;1719048;83;21041;-67
2022/09/04 02:24:01;;;;;;;9.95;5.75;;;;;;;;;;1704758;84;21001;-68
2022/09/04 02:26:37;;;;;;;7.95;5.08;;;;;;;;;;1705989;83;21064;-66
2022/09/04 02:29:38;;;;;;;8.50;5.35;;;;;;;;;;1697459;83;21048;-67
2022/09/04 02:32:17;;;;;;;9.15;4.78;;;;;;;;;;1704767;84;21068;-67
2022/09/04 02:35:08;;;;;;;14.35;5.72;;;;;;;;;;1704660;84;21029;-66
2022/09/04 02:37:59;;;;;;;9.95;5.60;;;;;;;;;;1693601;83;21008;-66
2022/09/04 02:40:31;;;;;;;9.85;5.00;;;;;;;;;;1728259;82;21031;-66
2022/09/04 02:43:08;;;;;;;8.50;5.97;;;;;;;;;;1728198;82;21102;-65
2022/09/04 02:46:10;;;;;;;7.87;5.33;;;;;;;;;;1728540;83;21038;-66
2022/09/04 02:48:40;;;;;;;10.55;6.03;;;;;;;;;;1728222;82;21039;-66
2022/09/04 02:51:44;;;;;;;13.13;6.60;;;;;;;;;;1727898;83;21476;-66
2022/09/04 02:54:36;;;;;;;10.40;6.42;;;;;;;;;;1728597;83;21052;-66
2022/09/04 02:57:26;;;;;;;11.40;7.47;;;;;;;;;;1728139;83;21027;-65
2022/09/04 03:00:03;;;;;;;13.43;6.92;;;;;;;;;;1728290;83;21098;-65
2022/09/04 03:02:32;;;;;;;12.28;7.17;;;;;;;;;;1728440;83;21028;-64
2022/09/04 03:05:08;;;;;;;12.03;7.75;;;;;;;;;;1691381;83;21040;-64
2022/09/04 03:07:38;;;;;;;11.90;7.05;;;;;;;;;;1717376;82;21077;-65
2022/09/04 03:10:16;;;;;;;16.07;8.20;;;;;;;;;;1727921;83;21048;-65
2022/09/04 03:12:56;;;;;;;10.70;6.58;;;;;;;;;;1728613;82;21030;-66
2022/09/04 03:15:46;;;;;;;13.53;6.83;;;;;;;;;;1705136;81;21085;-65
2022/09/04 03:18:20;;;;;;;11.38;6.80;;;;;;;;;;1728270;83;21015;-64
2022/09/04 03:21:00;;;;;;;13.30;7.62;;;;;;;;;;1728590;83;21035;-65
2022/09/04 03:23:33;;;;;;;10.20;6.75;;;;;;;;;;1728359;83;20991;-65
2022/09/04 03:26:13;;;;;;;11.12;6.85;;;;;;;;;;1728405;83;21011;-65
2022/09/04 03:28:52;;;;;;;10.55;6.62;;;;;;;;;;1728637;82;21012;-64
2022/09/04 03:31:28;;;;;;;12.35;6.53;;;;;;;;;;1741001;81;21023;-64
2022/09/04 03:33:59;;;;;;;10.70;5.60;;;;;;;;;;1748049;80;21502;-64
2022/09/04 03:36:35;;;;;;;9.28;5.58;;;;;;;;;;1765477;80;21006;-63
2022/09/04 03:39:09;;;;;;;12.65;5.92;;;;;;;;;;1770726;80;21054;-64
2022/09/04 03:41:41;;;;;;;11.73;6.40;;;;;;;;;;1748712;81;21489;-64
2022/09/04 03:44:18;;;;;;;10.13;6.45;;;;;;;;;;1718743;82;21011;-64
2022/09/04 03:47:11;;;;;;;13.48;6.90;;;;;;;;;;1713930;83;21536;-65
2022/09/04 03:49:56;;;;;;;13.05;7.53;;;;;;;;;;1759156;80;21048;-64
2022/09/04 03:52:27;;;;;;;13.50;8.08;;;;;;;;;;1768703;81;21494;-64
2022/09/04 03:55:12;;;;;;;17.27;8.10;;;;;;;;;;1762853;80;21047;-63
2022/09/04 03:58:10;;;;;;;12.90;8.13;;;;;;;;;;1756851;80;21160;-63
2022/09/04 04:00:55;;;;;;;12.45;7.80;;;;;;;;;;1782316;80;21538;-63
2022/09/04 04:03:38;;;;;;;12.33;7.97;;;;;;;;;;1775595;80;21549;-64
2022/09/04 04:06:12;;;;;;;14.33;7.97;;;;;;;;;;1766316;80;21526;-64
2022/09/04 04:09:14;;;;;;;13.13;7.08;;;;;;;;;;1766926;80;21530;-64
2022/09/04 04:11:55;;;;;;;12.83;7.80;;;;;;;;;;1714494;82;21028;-64
2022/09/04 04:14:36;;;;;;;10.15;6.50;;;;;;;;;;1765812;79;20987;-64
2022/09/04 04:17:21;;;;;;;9.63;7.10;;;;;;;;;;1761841;80;21052;-64
2022/09/04 04:20:15;;;;;;;13.48;6.87;;;;;;;;;;1768089;80;21030;-64
2022/09/04 04:23:00;;;;;;;9.43;6.25;;;;;;;;;;1774805;80;21515;-64
2022/09/04 04:25:49;;;;;;;9.90;6.35;;;;;;;;;;1773873;80;21017;-64
2022/09/04 04:28:37;;;;;;;10.38;6.05;;;;;;;;;;1755613;81;21024;-64
2022/09/04 04:31:17;;;;;;;8.15;5.55;;;;;;;;;;1763388;80;21019;-64
2022/09/04 04:34:08;;;;;;;7.95;5.15;;;;;;;;;;1700407;81;21050;-64
2022/09/04 04:36:47;;;;;;;11.15;6.00;;;;;;;;;;1772735;80;21019;-64
2022/09/04 04:39:34;;;;;;;10.55;5.80;;;;;;;;;;1762388;80;21473;-61
2022/09/04 04:42:10;;;;;;;11.93;5.45;;;;;;;;;;1773167;81;20981;-64
2022/09/04 04:48:28;;;;;;;7.85;5.10;;;;;;;;;;1772083;80;21042;-63
2022/09/04 04:51:04;;;;;;;8.70;5.22;;;;;;;;;;1766000;80;20995;-63
2022/09/04 04:53:44;;;;;;;9.05;4.83;;;;;;;;;;1760066;80;21031;-64
2022/09/04 04:56:18;;;;;;;6.67;4.25;;;;;;;;;;1762717;80;20993;-64
2022/09/04 04:59:03;;;;;;;6.83;4.17;;;;;;;;;;1765226;80;21508;-64
2022/09/04 05:01:49;;;;;;;7.60;4.70;;;;;;;;;;1757575;80;21093;-64
2022/09/04 05:04:47;;;;;;;7.22;4.85;;;;;;;;;;1770469;80;21461;-63
2022/09/04 05:07:33;;;;;;;6.35;4.45;;;;;;;;;;1770096;80;21031;-64
2022/09/04 05:10:17;;;;;;;6.78;4.00;;;;;;;;;;1740834;80;21038;-64
2022/09/04 05:13:21;;;;;;;5.40;4.50;;;;;;;;;;1760346;80;21020;-63
2022/09/04 05:15:56;;;;;;;6.22;4.33;;;;;;;;;;1766566;80;21027;-63
2022/09/04 05:18:43;;;;;;;7.75;4.55;;;;;;;;;;1773720;80;21042;-64
2022/09/04 05:21:13;;;;;;;8.75;4.45;;;;;;;;;;1766180;80;20991;-64
2022/09/04 05:23:58;;;;;;;6.25;4.28;;;;;;;;;;1726837;82;21042;-64
2022/09/04 05:26:34;;;;;;;8.80;4.50;;;;;;;;;;1757519;80;21147;-64
2022/09/04 05:29:22;;;;;;;7.55;4.37;;;;;;;;;;1767650;80;21016;-63
2022/09/04 05:32:06;;;;;;;5.58;4.10;;;;;;;;;;1724176;82;21649;-64
2022/09/04 05:34:48;;;;;;;5.12;4.12;;;;;;;;;;1756896;80;21015;-64
2022/09/04 05:37:21;;;;;;;6.80;3.87;;;;;;;;;;1760169;80;21047;-64
2022/09/04 05:40:09;;;;;;;6.87;3.90;;;;;;;;;;1760383;80;20987;-63
2022/09/04 05:42:47;;;;;;;7.87;4.17;;;;;;;;;;1700553;80;21004;-63
2022/09/04 05:45:35;;;;;;;6.20;3.85;;;;;;;;;;1758222;80;21012;-63
2022/09/04 05:48:08;;;;;;;5.78;3.50;;;;;;;;;;1722476;82;21076;-63
2022/09/04 05:50:41;;;;;;;4.08;2.95;;;;;;;;;;1754207;80;21042;-63
2022/09/04 05:53:45;;;;;;;4.25;3.15;;;;;;;;;;1776856;80;21089;-64
2022/09/04 05:56:40;;;;;;;3.20;2.83;;;;;;;;;;1777334;79;21026;-64
2022/09/04 05:59:22;;;;;;;4.72;2.92;;;;;;;;;;1768166;80;21168;-64
2022/09/04 06:02:25;;;;;;;6.10;3.20;;;;;;;;;;1763357;80;21086;-63
2022/09/04 06:05:11;;;;;;;2.92;2.55;;;;;;;;;;1769255;80;21031;-63
2022/09/04 06:07:54;;;;;;;3.58;2.58;;;;;;;;;;1717290;82;21081;-64
2022/09/04 06:10:30;;;;;;;4.35;2.60;;;;;;;;;;1665868;83;21013;-63
2022/09/04 06:13:31;;;;;;;3.60;2.22;;;;;;;;;;1767009;80;21011;-64
2022/09/04 06:16:20;;;;;;;4.55;2.87;;;;;;;;;;1770804;80;21007;-64
2022/09/04 06:18:53;;;;;;;3.87;2.50;;;;;;;;;;1776037;80;21031;-64
2022/09/04 06:21:46;;;;;;;4.17;2.27;;;;;;;;;;1744795;81;21017;-64
2022/09/04 06:24:44;;;;;;;3.92;2.20;;;;;;;;;;1768003;80;21058;-63
2022/09/04 06:27:35;;;;;;;4.20;1.90;;;;;;;;;;1692803;83;21281;-63
2022/09/04 06:30:08;;;;;;;4.30;2.25;;;;;;;;;;1766534;80;21044;-62
2022/09/04 06:32:53;;;;;;;2.60;2.40;;;;;;;;;;1762300;80;21120;-63
2022/09/04 06:35:35;;;;;;;4.62;2.02;;;;;;;;;;1754692;80;21032;-63
2022/09/04 06:38:27;;;;;;;3.92;2.15;;;;;;;;;;1761057;80;21066;-64
2022/09/04 06:41:07;;;;;;;4.15;2.20;;;;;;;;;;1759556;81;21009;-64
2022/09/04 06:43:49;;;;;;;2.65;2.12;;;;;;;;;;1762821;80;21456;-63
2022/09/04 06:46:26;;;;;;;3.25;2.27;;;;;;;;;;1692306;84;21053;-64
2022/09/04 06:48:59;;;;;;;2.58;2.10;;;;;;;;;;1764481;80;20996;-64
2022/09/04 06:51:54;;;;;;;4.03;2.07;;;;;;;;;;1767956;80;21516;-63
2022/09/04 06:54:36;;;;;;;4.70;2.37;;;;;;;;;;1681905;85;21028;-65
2022/09/04 06:57:22;;;;;;;2.45;1.70;;;;;;;;;;1768260;80;21000;-64
2022/09/04 07:00:09;;;;;;;4.03;1.87;;;;;;;;;;1762620;80;21046;-64
2022/09/04 07:02:47;;;;;;;2.45;2.00;;;;;;;;;;1769541;80;21015;-64
2022/09/04 07:05:17;;;;;;;2.85;2.10;;;;;;;;;;1771291;80;21016;-64
2022/09/04 07:07:53;;;;;;;2.98;2.15;;;;;;;;;;1769123;80;20988;-64
2022/09/04 07:10:32;;;;;;;3.77;2.17;;;;;;;;;;1766246;80;21087;-64
2022/09/04 07:13:25;;;;;;;3.95;2.25;;;;;;;;;;1694612;83;21074;-64
2022/09/04 07:15:58;;;;;;;2.47;2.27;;;;;;;;;;1702868;83;21021;-64
2022/09/04 07:18:57;;;;;;;3.30;2.47;;;;;;;;;;1753490;80;21062;-64
2022/09/04 07:21:27;;;;;;;7.83;3.10;;;;;;;;;;1764668;80;21009;-64
2022/09/04 07:24:18;;;;;;;3.20;2.40;;;;;;;;;;1760697;80;21067;-64
2022/09/04 07:26:57;;;;;;;2.67;2.05;;;;;;;;;;1762344;80;21514;-64
2022/09/04 07:29:39;;;;;;;4.40;2.30;;;;;;;;;;1764841;80;21514;-65
2022/09/04 07:32:22;;;;;;;2.67;2.12;;;;;;;;;;1770913;80;21460;-64
2022/09/04 07:35:17;;;;;;;4.83;2.90;;;;;;;;;;1769557;80;21128;-64
2022/09/04 07:37:54;;;;;;;2.95;2.47;;;;;;;;;;1765445;80;20987;-64
2022/09/04 07:40:35;;;;;;;3.70;2.67;;;;;;;;;;1772877;79;21545;-63
2022/09/04 07:43:14;;;;;;;5.90;3.20;;;;;;;;;;1759871;80;20990;-65
2022/09/04 07:45:49;;;;;;;3.90;2.62;;;;;;;;;;1771780;80;21044;-63
2022/09/04 07:48:27;;;;;;;2.45;2.05;;;;;;;;;;1764165;80;21041;-64
2022/09/04 07:51:17;;;;;;;7.78;3.15;;;;;;;;;;1716586;82;21319;-64
2022/09/04 07:53:47;;;;;;;4.80;2.92;;;;;;;;;;1734745;82;21028;-62
2022/09/04 07:56:30;;;;;;;3.58;2.10;;;;;;;;;;1750686;81;21003;-64
2022/09/04 07:59:07;;;;;;;2.27;1.95;;;;;;;;;;1765041;80;21043;-65
2022/09/04 08:01:50;;;;;;;3.62;1.92;;;;;;;;;;1770998;79;21581;-64
2022/09/04 08:04:36;;;;;;;3.15;1.82;;;;;;;;;;1766929;80;21121;-64
2022/09/04 08:07:06;;;;;;;3.05;2.02;;;;;;;;;;1763226;80;21023;-64
2022/09/04 08:09:51;;;;;;;4.22;2.10;;;;;;;;;;1741994;80;21801;-64
2022/09/04 08:12:39;;;;;;;3.60;1.95;;;;;;;;;;1718762;82;21102;-64
2022/09/04 08:15:33;;;;;;;2.60;1.70;;;;;;;;;;1679214;84;21036;-64
2022/09/04 08:18:02;;;;;;;;;;;;;;;;;;1720799;83;21096;-64
2022/09/04 08:20:36;;;;;;;3.85;1.62;;;;;;;;;;1720760;82;20117;-64
2022/09/04 08:23:31;;;;;;;2.45;1.70;;;;;;;;;;1703262;82;21032;-64
2022/09/04 08:26:14;;;;;;;2.65;1.40;;;;;;;;;;1717929;83;21095;-64
2022/09/04 08:29:01;;;;;;;3.12;1.90;;;;;;;;;;1712506;83;21584;-63
2022/09/04 08:31:32;;;;;;;3.05;1.50;;;;;;;;;;1717609;82;21536;-63
2022/09/04 08:34:08;;;;;;;3.00;1.50;;;;;;;;;;1715813;82;21039;-65
2022/09/04 08:37:00;;;;;;;4.20;1.82;;;;;;;;;;1703809;84;21008;-65
2022/09/04 08:39:37;;;;;;;2.80;1.77;;;;;;;;;;1706124;83;21092;-64
2022/09/04 08:42:22;;;;;;;2.10;1.80;;;;;;;;;;1703007;84;21040;-64
2022/09/04 08:45:10;;;;;;;4.97;1.80;;;;;;;;;;1706635;82;21001;-63
2022/09/04 08:48:00;;;;;;;1.95;1.75;;;;;;;;;;1702857;84;21072;-64
2022/09/04 08:50:39;;;;;;;3.17;1.70;;;;;;;;;;1714188;83;21519;-63
2022/09/04 08:53:16;;;;;;;4.37;1.70;;;;;;;;;;1769705;80;21003;-64
2022/09/04 08:55:49;;;;;;;2.60;1.90;;;;;;;;;;1776256;80;21591;-64
2022/09/04 08:58:38;;;;;;;2.83;1.70;;;;;;;;;;1775284;81;21499;-64
2022/09/04 09:01:27;;;;;;;3.12;1.82;;;;;;;;;;1718172;82;21078;-63
2022/09/04 09:04:03;;;;;;;4.08;1.72;;;;;;;;;;1765268;80;21129;-64
2022/09/04 09:06:54;;;;;;;3.33;1.87;;;;;;;;;;1716873;82;21045;-63
2022/09/04 09:09:53;;;;;;;2.80;2.05;;;;;;;;;;1769168;80;21057;-64
2022/09/04 09:12:29;;;;;;;3.10;2.10;;;;;;;;;;1766864;80;21003;-64
2022/09/04 09:15:14;;;;;;;3.42;1.80;;;;;;;;;;1774301;80;21027;-64
2022/09/04 09:17:56;;;;;;;2.80;1.72;;;;;;;;;;1723242;82;21050;-64
2022/09/04 09:20:49;;;;;;;3.45;2.12;;;;;;;;;;1704169;83;21100;-63
2022/09/04 09:23:35;;;;;;;2.17;1.50;;;;;;;;;;1715749;82;21039;-64
2022/09/04 09:26:25;;;;;;;2.65;1.70;;;;;;;;;;1705393;83;21092;-64
2022/09/04 09:28:55;;;;;;;4.65;1.87;;;;;;;;;;1688971;84;21581;-64
2022/09/04 09:31:33;;;;;;;2.75;1.92;;;;;;;;;;1706173;83;21098;-63
2022/09/04 09:34:32;;;;;;;2.50;1.77;;;;;;;;;;1703912;83;21049;-64
2022/09/04 09:37:21;;;;;;;3.35;2.00;;;;;;;;;;1697623;83;21512;-64
2022/09/04 09:39:57;;;;;;;2.35;1.75;;;;;;;;;;1700774;83;21047;-64
2022/09/04 09:42:53;;;;;;;3.95;1.80;;;;;;;;;;1790544;79;21066;-64
2022/09/04 09:45:39;;;;;;;1.70;1.60;;;;;;;;;;1762009;80;21132;-64
2022/09/04 09:48:43;;;;;;;3.25;2.20;;;;;;;;;;1753131;80;20995;-64
2022/09/04 09:51:33;;;;;;;2.17;1.77;;;;;;;;;;1779929;79;21025;-64
2022/09/04 09:54:25;;;;;;;2.65;1.60;;;;;;;;;;1738287;81;21063;-64
2022/09/04 09:57:23;;;;;;;2.67;1.65;;;;;;;;;;1732567;82;21546;-64
2022/09/04 10:00:12;;;;;;;4.90;1.90;;;;;;;;;;1754747;81;21566;-63
2022/09/04 10:02:48;;;;;;;4.35;2.10;;;;;;;;;;1767545;80;21079;-65
2022/09/04 10:05:52;;;;;;;3.30;2.20;;;;;;;;;;1779083;79;21129;-64
2022/09/04 10:08:31;;;;;;;;;;;;;;;;;;1782255;79;21064;-65
2022/09/04 10:11:07;;;;;;;4.37;2.27;;;;;;;;;;1758546;81;20264;-64
2022/09/04 10:13:58;;;;;;;2.22;1.70;;;;;;;;;;1750977;80;21044;-64
2022/09/04 10:16:34;;;;;;;2.00;1.60;;;;;;;;;;1766580;80;21048;-64
2022/09/04 10:19:29;;;;;;;2.27;1.70;;;;;;;;;;1746381;80;21082;-65
2022/09/04 10:21:59;;;;;;;4.70;2.50;;;;;;;;;;1763834;79;21070;-64
2022/09/04 10:24:53;;;;;;;2.30;1.75;;;;;;;;;;1778037;80;21520;-64
2022/09/04 10:27:26;;;;;;;3.33;2.90;;;;;;;;;;1760784;79;21129;-63
2022/09/04 10:30:09;;;;;;;5.53;3.10;;;;;;;;;;1765495;80;21066;-64
2022/09/04 10:33:05;;;;;;;4.62;3.00;;;;;;;;;;1760590;80;20999;-63
2022/09/04 10:35:47;;;;;;;4.47;3.08;;;;;;;;;;1779263;79;21638;-65
2022/09/04 10:38:34;;;;;;;4.33;2.70;;;;;;;;;;1765814;80;20993;-64
2022/09/04 10:41:11;;;;;;;7.05;2.98;;;;;;;;;;1779998;79;21081;-64
2022/09/04 10:44:02;;;;;;;5.65;2.70;;;;;;;;;;1777400;80;20999;-63
2022/09/04 10:46:52;;;;;;;2.95;2.10;;;;;;;;;;1752010;80;21032;-65
2022/09/04 10:49:32;;;;;;;6.10;2.37;;;;;;;;;;1763824;80;21053;-64
2022/09/04 10:52:29;;;;;;;11.08;7.30;;;;;;;;;;1758324;80;21044;-64
2022/09/04 10:55:35;;;;;;;6.10;3.30;;;;;;;;;;1769642;80;21488;-64
2022/09/04 10:58:09;;;;;;;5.65;2.90;;;;;;;;;;1730164;82;21559;-64
2022/09/04 11:00:49;;;;;;;3.20;2.67;;;;;;;;;;1737482;81;21150;-64
2022/09/04 11:03:33;;;;;;;3.52;2.52;;;;;;;;;;1714502;81;21068;-64
2022/09/04 11:06:28;;;;;;;5.72;3.70;;;;;;;;;;1743954;81;21044;-64
2022/09/04 11:09:08;;;;;;;;;;;;;;;;;;1751760;80;21500;-64
2022/09/04 11:12:12;;;;;;;3.42;2.70;;;;;;;;;;1754938;80;20493;-64
2022/09/04 11:15:06;;;;;;;3.20;2.80;;;;;;;;;;1763157;80;21534;-64
2022/09/04 11:18:06;;;;;;;3.58;2.27;;;;;;;;;;1762686;80;21024;-64
2022/09/04 11:20:53;;;;;;;4.05;2.40;;;;;;;;;;1731513;81;21123;-64
2022/09/04 11:23:41;;;;;;;7.15;4.53;;;;;;;;;;1771605;80;21089;-64
2022/09/04 11:26:22;;;;;;;11.40;7.30;;;;;;;;;;1769885;80;21571;-64
2022/09/04 11:29:11;;;;;;;11.63;7.12;;;;;;;;;;1764885;79;21483;-64
2022/09/04 11:32:11;;;;;;;16.30;8.53;;;;;;;;;;1740233;81;21059;-64
2022/09/04 11:34:45;;;;;;;9.13;5.87;;;;;;;;;;1749913;80;21024;-64
2022/09/04 11:37:21;;;;;;;6.83;4.15;;;;;;;;;;1755061;80;21055;-64
2022/09/04 11:40:07;;;;;;;9.68;6.50;;;;;;;;;;1739451;80;21113;-64
2022/09/04 11:42:48;;;;;;;6.42;3.40;;;;;;;;;;1780725;79;21066;-64
2022/09/04 11:45:50;;;;;;;6.75;4.50;;;;;;;;;;1763850;79;21526;-64
2022/09/04 11:48:42;;;;;;;5.42;3.47;;;;;;;;;;1774044;79;21602;-64
2022/09/04 11:51:38;;;;;;;5.97;4.00;;;;;;;;;;1764159;80;21000;-64
2022/09/04 11:54:23;;;;;;;7.40;4.65;;;;;;;;;;1788285;79;21076;-65
2022/09/04 11:57:05;;;;;;;6.83;4.35;;;;;;;;;;1779032;79;21050;-65
2022/09/04 11:59:38;;;;;;;7.22;3.33;;;;;;;;;;1751013;79;20973;-65
2022/09/04 12:02:31;;;;;;;6.47;4.28;;;;;;;;;;1717794;81;21044;-65
2022/09/04 12:05:37;;;;;;;5.83;3.50;;;;;;;;;;1748369;80;21507;-63
2022/09/04 12:08:05;;;;;;;3.87;3.22;;;;;;;;;;1755470;80;21029;-62
2022/09/04 12:11:05;;;;;;;3.45;2.35;;;;;;;;;;1765922;81;21838;-64
2022/09/04 12:13:43;;;;;;;4.62;2.77;;;;;;;;;;1786347;79;21105;-65
2022/09/04 12:16:46;;;;;;;5.58;3.25;;;;;;;;;;1740438;80;21043;-64
2022/09/04 12:19:28;;;;;;;4.75;2.80;;;;;;;;;;1781692;80;21031;-65
2022/09/04 12:22:35;;;;;;;3.55;2.42;;;;;;;;;;1787153;80;21006;-64
2022/09/04 12:25:13;;;;;;;6.35;5.00;;;;;;;;;;1783589;80;22657;-62
2022/09/04 12:27:55;;;;;;;3.20;2.20;;;;;;;;;;1786547;80;21067;-64
2022/09/04 12:30:28;;;;;;;3.35;2.08;;;;;;;;;;1780782;80;21000;-64
2022/09/04 12:33:35;;;;;;;3.35;2.17;;;;;;;;;;1779671;80;21054;-63
2022/09/04 12:36:39;;;;;;;3.98;2.08;;;;;;;;;;1706760;83;21108;-64
2022/09/04 12:39:17;;;;;;;;;;;;;;;;;;1704999;83;21173;-63
2022/09/04 12:41:50;;;;;;;3.83;1.90;;;;;;;;;;1706612;83;20402;-64
2022/09/04 12:44:44;;;;;;;2.30;1.98;;;;;;;;;;1702208;83;21082;-64
2022/09/04 12:47:20;;;;;;;4.00;2.72;;;;;;;;;;1703536;82;21040;-64
2022/09/04 12:50:00;;;;;;;4.83;3.27;;;;;;;;;;1698737;83;21522;-64
2022/09/04 12:52:39;;;;;;;3.98;2.60;;;;;;;;;;1701630;83;21531;-63
2022/09/04 12:55:29;;;;;;;4.45;2.87;;;;;;;;;;1705032;83;21060;-63
2022/09/04 12:58:25;;;;;;;3.67;2.37;;;;;;;;;;1701194;83;21051;-64
2022/09/04 13:01:12;;;;;;;3.58;2.70;;;;;;;;;;1698121;83;21067;-64
2022/09/04 13:04:01;;;;;;;3.83;2.83;;;;;;;;;;1689471;83;21129;-64
2022/09/04 13:06:43;;;;;;;4.78;2.70;;;;;;;;;;1706849;82;21043;-64
2022/09/04 13:09:16;;;;;;;4.33;1.98;;;;;;;;;;1703481;83;21019;-64
2022/09/04 13:12:08;;;;;;;2.50;2.00;;;;;;;;;;1710223;83;21040;-64
2022/09/04 13:14:59;;;;;;;3.33;1.85;;;;;;;;;;1709790;83;21519;-62
2022/09/04 13:17:33;;;;;;;2.83;1.50;;;;;;;;;;1699835;83;21139;-64
2022/09/04 13:20:12;;;;;;;2.33;1.60;;;;;;;;;;1696295;83;21082;-63
2022/09/04 13:23:03;;;;;;;2.83;1.50;;;;;;;;;;1690552;83;22645;-63
2022/09/04 13:25:36;;;;;;;2.50;1.80;;;;;;;;;;1698949;82;21024;-63
2022/09/04 13:28:24;;;;;;;3.83;1.90;;;;;;;;;;1704261;81;21080;-63
2022/09/04 13:31:04;;;;;;;2.12;1.82;;;;;;;;;;1717499;81;21064;-64
2022/09/04 13:33:57;;;;;;;2.55;2.00;;;;;;;;;;1717078;81;21524;-64
2022/09/04 13:36:43;;;;;;;2.37;1.87;;;;;;;;;;1707984;82;21009;-64
2022/09/04 13:39:40;;;;;;;4.50;2.55;;;;;;;;;;1675449;85;21254;-63
2022/09/04 13:42:48;;;;;;;5.10;3.02;;;;;;;;;;1707801;82;20988;-63
2022/09/04 13:45:41;;;;;;;5.15;3.25;;;;;;;;;;1676998;83;21556;-65
2022/09/04 13:48:15;;;;;;;4.45;3.33;;;;;;;;;;1661681;83;21022;-65
2022/09/04 13:50:47;;;;;;;5.60;3.30;;;;;;;;;;1679994;83;21623;-65
2022/09/04 13:53:23;;;;;;;4.92;3.05;;;;;;;;;;1653092;85;21123;-65
2022/09/04 13:56:12;;;;;;;4.58;2.87;;;;;;;;;;1685173;82;21630;-65
2022/09/04 13:58:49;;;;;;;3.08;2.30;;;;;;;;;;1677411;83;21050;-64
2022/09/04 14:01:22;;;;;;;3.35;2.30;;;;;;;;;;1700917;81;21079;-64
2022/09/04 14:03:53;;;;;;;4.60;2.17;;;;;;;;;;1710235;81;21040;-64
2022/09/04 14:06:28;;;;;;;3.10;1.90;;;;;;;;;;1699667;81;21019;-64
2022/09/04 14:08:59;;;;;;;4.33;1.92;;;;;;;;;;1651359;81;21638;-64
2022/09/04 14:11:43;;;;;;;1.80;1.40;;;;;;;;;;1691510;83;21017;-64
2022/09/04 14:14:33;;;;;;;2.72;1.42;;;;;;;;;;1695077;81;21655;-64
2022/09/04 14:17:00;;;;;;;2.90;1.60;;;;;;;;;;1699696;81;21082;-64
2022/09/04 14:19:41;;;;;;;3.10;1.70;;;;;;;;;;1680874;83;21074;-63
2022/09/04 14:22:26;;;;;;;2.47;2.00;;;;;;;;;;1706842;81;21070;-64
2022/09/04 14:25:09;;;;;;;3.55;1.98;;;;;;;;;;1709671;82;21072;-64
2022/09/04 14:27:53;;;;;;;2.55;2.10;;;;;;;;;;1712954;82;21125;-65
2022/09/04 14:30:21;;;;;;;3.72;1.90;;;;;;;;;;1716033;82;21056;-65
2022/09/04 14:32:59;;;;;;;2.87;2.25;;;;;;;;;;1702952;82;21043;-65
2022/09/04 14:35:48;;;;;;;2.40;2.20;;;;;;;;;;1706647;82;21027;-64
2022/09/04 14:38:23;;;;;;;3.05;2.25;;;;;;;;;;1703558;82;21204;-64
2022/09/04 14:41:05;;;;;;;3.40;2.37;;;;;;;;;;1693729;82;21095;-64
2022/09/04 14:44:08;;;;;;;5.08;2.50;;;;;;;;;;1694033;81;21101;-64
2022/09/04 14:46:42;;;;;;;3.55;2.37;;;;;;;;;;1703145;82;22391;-64
2022/09/04 14:49:13;;;;;;;3.87;2.70;;;;;;;;;;1710322;82;21150;-63
2022/09/04 14:51:44;;;;;;;2.83;1.98;;;;;;;;;;1712658;82;21575;-64
2022/09/04 14:54:18;;;;;;;3.15;2.20;;;;;;;;;;1696621;83;21034;-64
2022/09/04 14:56:50;;;;;;;3.13;1.90;;;;;;;;;;1693532;82;21074;-64
2022/09/04 14:59:23;;;;;;;3.65;2.12;;;;;;;;;;1685906;82;21413;-64
2022/09/04 15:02:10;;;;;;;4.58;2.70;;;;;;;;;;1692830;83;21094;-64
2022/09/04 15:04:50;;;;;;;6.92;4.30;;;;;;;;;;1686600;83;21618;-64
2022/09/04 15:07:23;;;;;;;7.25;4.20;;;;;;;;;;1697821;83;21086;-64
2022/09/04 15:09:53;;;;;;;9.25;4.42;;;;;;;;;;1692192;82;21512;-64
2022/09/04 15:12:26;;;;;;;5.58;3.52;;;;;;;;;;1705513;82;21088;-64
2022/09/04 15:15:16;;;;;;;6.83;3.22;;;;;;;;;;1714927;82;21587;-64
2022/09/04 15:18:00;;;;;;;5.80;3.00;;;;;;;;;;1703390;83;21067;-64
2022/09/04 15:20:30;;;;;;;5.37;3.30;;;;;;;;;;1688036;83;21542;-64
2022/09/04 15:23:13;;;;;;;5.65;2.95;;;;;;;;;;1687877;83;21031;-64
2022/09/04 15:26:03;;;;;;;5.70;3.05;;;;;;;;;;1712433;82;21008;-64
2022/09/04 15:28:40;;;;;;;4.90;2.90;;;;;;;;;;1702421;82;21701;-63
2022/09/04 15:31:20;;;;;;;5.90;2.77;;;;;;;;;;1710536;82;21072;-66
2022/09/04 15:33:47;;;;;;;3.65;2.52;;;;;;;;;;1703495;83;21083;-63
2022/09/04 15:36:22;;;;;;;3.95;2.90;;;;;;;;;;1688410;83;21579;-63
2022/09/04 15:39:00;;;;;;;3.98;2.60;;;;;;;;;;1697072;83;21027;-63
2022/09/04 15:41:46;;;;;;;5.00;1.90;;;;;;;;;;1705419;83;21099;-63
2022/09/04 15:44:22;;;;;;;2.87;1.90;;;;;;;;;;1718648;82;21021;-64
2022/09/04 15:46:56;;;;;;;2.60;2.15;;;;;;;;;;1697750;83;21008;-63
2022/09/04 15:49:54;;;;;;;3.87;2.08;;;;;;;;;;1678393;83;21064;-63
2022/09/04 15:52:45;;;;;;;4.72;1.62;;;;;;;;;;1696038;83;21047;-64
2022/09/04 15:55:35;;;;;;;4.22;1.70;;;;;;;;;;1690427;83;21079;-64
2022/09/04 15:58:18;;;;;;;3.27;1.90;;;;;;;;;;1675624;83;21087;-64
2022/09/04 16:01:08;;;;;;;3.67;2.43;;;;;;;;;;1684978;81;21083;-64
2022/09/04 16:03:58;;;;;;;4.47;3.00;;;;;;;;;;1715110;82;21086;-63
2022/09/04 16:06:30;;;;;;;4.72;2.95;;;;;;;;;;1676224;83;21102;-64
2022/09/04 16:09:10;;;;;;;4.33;2.70;;;;;;;;;;1696515;82;21583;-64
2022/09/04 16:11:44;;;;;;;2.27;2.08;;;;;;;;;;1673662;83;21087;-64
2022/09/04 16:14:25;;;;;;;3.02;2.12;;;;;;;;;;1684504;83;21512;-64
2022/09/04 16:17:07;;;;;;;3.90;2.15;;;;;;;;;;1690378;83;21048;-64
2022/09/04 16:19:44;;;;;;;4.17;2.67;;;;;;;;;;1694859;83;21615;-64
2022/09/04 16:22:21;;;;;;;4.60;2.72;;;;;;;;;;1683013;83;21495;-65